NCAR-RAP Real-Time Weather Data

Output produced by METARs form (21 May 2019  11:12 UTC)
found at http://weather.rap.ucar.edu/surface/
 
RJFS 211100Z 31004KT 290V360 CAVOK 17/09 Q1007
RJFS 211000Z 33005KT 290V010 CAVOK 18/08 Q1007
RJFS 210900Z 30013KT CAVOK 21/05 Q1006
RJFS 210800Z 30015KT CAVOK 22/05 Q1006
RJFS 210700Z 28017KT CAVOK 23/08 Q1006
RJFS 210600Z 28013KT CAVOK 25/09 Q1006
RJFS 210500Z 26010KT CAVOK 24/08 Q1006
RJFS 210400Z 24010KT 9999 FEW040 23/12 Q1006
RJFS 210300Z 27007KT 210V300 9999 FEW040 SCT/// 23/11 Q1006
RJFS 210227Z 36010KT 9999 FEW040 BKN/// 22/08 Q1007 RMK 1CU040 A2974
RJFS 210200Z 15004KT 110V240 9999 FEW040 BKN/// 22/10 Q1007
RJFS 210100Z 26006KT 230V310 9999 FEW040 BKN/// 19/11 Q1007
RJFS 210000Z 30004KT 270V350 9999 FEW030 BKN/// 18/10 Q1008
RJFS 202300Z 33003KT 300V010 9999 FEW030 BKN/// 16/10 Q1008
RJFS 202200Z 31004KT 9999 FEW020 BKN/// 15/13 Q1007
RJFS 202100Z 34004KT CAVOK 12/11 Q1007
RJFS 201900Z 31004KT CAVOK 13/11 Q1007
RJFS 201800Z 30006KT CAVOK 13/11 Q1007
RJFS 201700Z 31007KT CAVOK 15/11 Q1007
RJFS 201600Z 28009KT CAVOK 16/11 Q1007
RJFS 201200Z 29008KT 9999 FEW030 BKN150 17/14 Q1006
RJFS 201100Z 29011KT 9999 FEW015 SCT030 BKN040 18/15 Q1005
RJFS 201000Z 31009KT 9999 -SHRA FEW010 BKN020 BKN030 18/16 Q1005
RJFS 200900Z 30009KT 9999 -SHRA FEW010 SCT015 BKN030 19/18 Q1004
RJFS 200800Z 28007KT 9999 -SHRA FEW005 SCT020 BKN045 20/19 Q1004
RJFS 200700Z 29009KT 9999 -SHRA FEW005 SCT010 BKN015 19/18 Q1004
RJFS 200600Z 28011KT 9999 -SHRA FEW008 SCT015 BKN020 20/19 Q1004
RJFS 200549Z 28012KT 9999 -SHRA FEW003 SCT015 BKN020 20/19 Q1004 RMK 1ST003 4CU015 6CU020 A2966
RJFS 200538Z 29012KT 4000 SHRA BR FEW003 SCT010 BKN015 20/19 Q1004 RMK 1ST003 3CU010 6CU015 A2966
RJFS 200516Z 28013KT 3000 +SHRA BR FEW010 BKN020 BKN040 20/19 Q1004 RMK 1ST010 5CU020 6CU040 A2966
RJFS 200511Z 28013KT 4000 SHRA BR FEW010 SCT015 BKN040 20/19 Q1004 RMK 1ST010 4CU015 6CU040 A2966
RJFS 200500Z 28013KT 5000 -SHRA BR FEW010 SCT015 BKN040 20/19 Q1004
RJFS 200435Z 29015KT 5000 SHRA BR FEW010 SCT015 BKN045 20/19 Q1003 RMK 1ST010 4CU015 6CU045 A2964
RJFS 200400Z 28009KT 5000 -SHRA BR FEW005 SCT010 BKN020 21/20 Q1004
RJFS 200342Z 28010KT 4500 SHRA BR FEW005 SCT015 BKN040 21/20 Q1004 RMK 1ST005 3CU015 5CU040 A2966
RJFS 200331Z 26014KT 1500 R29/1200VP2000D +SHRA BR FEW015 SCT030 BKN040 22/20 Q1004 RMK 1CU015 3CU030 6CU040 A2966
RJFS 200328Z 23012KT 180V250 4500 -SHRA BR FEW015 SCT030 BKN040 23/21 Q1004 RMK 1CU015 3CU030 6CU040 A2966
RJFS 200300Z 17010KT 9999 VCSH FEW020 SCT030 BKN060 23/21 Q1004
RJFS 200200Z 16005KT 140V200 9999 -SHRA FEW020 SCT030 BKN040 24/21 Q1004
RJFS 200100Z 21003KT 160V240 9999 VCSH FEW020 SCT035 BKN050 24/20 Q1004
RJFS 200000Z VRB02KT 9999 FEW020 SCT035 BKN/// 25/20 Q1004
RJFS 192300Z 05003KT 020V080 9999 FEW010 SCT040 BKN050 23/19 Q1005
RJFS 192200Z 35004KT 9999 FEW010 SCT040 BKN050 22/20 Q1005
RJFS 192100Z 01004KT 340V040 9999 FEW010 SCT045 BKN060 21/20 Q1005
RJFS 191900Z 02002KT 9999 FEW030 BKN050 21/20 Q1006
RJFS 191800Z 07006KT 9999 -RA FEW030 BKN050 21/20 Q1007
RJFS 191700Z 05005KT 9999 FEW030 SCT040 BKN060 21/20 Q1007
RJFS 191600Z 06006KT 9999 SCT040 BKN060 22/19 Q1007
RJFS 191200Z 12008KT 9999 FEW020 SCT050 BKN070 23/19 Q1009
RJFS 191100Z 12010KT 9999 -RA FEW020 SCT050 BKN080 23/20 Q1009
RJFS 191000Z 12007KT 9999 -RA FEW010 SCT050 BKN080 23/20 Q1008
RJFS 190900Z 21004KT 170V260 9999 FEW030 SCT050 BKN080 23/20 Q1008
RJFS 190800Z 20005KT 9999 FEW010 SCT040 BKN080 24/21 Q1008
RJFS 190700Z 20005KT 170V240 9999 -RA FEW030 SCT040 BKN080 25/20 Q1008
RJFS 190600Z 12017KT 9999 FEW030 SCT050 BKN090 27/20 Q1008
RJFS 190500Z 12016KT 9999 FEW030 BKN050 BKN090 26/19 Q1008
RJFS 190422Z 10016G26KT 9999 FEW025 SCT050 BKN090 27/19 Q1008 RMK 1CU025 4SC050 7AC090 A2979
RJFS 190400Z 10013KT 9999 FEW025 SCT050 BKN090 27/19 Q1009
RJFS 190300Z 07007KT 9999 FEW015 SCT050 BKN080 26/20 Q1009
RJFS 190200Z 07007KT 9999 FEW010 SCT060 BKN080 24/19 Q1010
RJFS 190100Z 04005KT 9999 FEW010 BKN060 BKN080 23/20 Q1010
RJFS 190000Z VRB01KT 9999 -RA FEW015 BKN060 BKN080 21/19 Q1011